sensor_id;sensor_type;location;lat;lon;timestamp;pressure;altitude;pressure_sealevel;temperature;humidity
49825;BME280;35714;55.708;37.478;2023-12-14T00:01:12;99946.78;;;-9.62;56.05
49825;BME280;35714;55.708;37.478;2023-12-14T00:03:40;99965.19;;;-9.48;55.82
49825;BME280;35714;55.708;37.478;2023-12-14T00:06:13;99955.25;;;-9.43;55.20
49825;BME280;35714;55.708;37.478;2023-12-14T00:08:40;99956.91;;;-9.56;55.47
49825;BME280;35714;55.708;37.478;2023-12-14T00:11:06;99950.53;;;-9.66;56.22
49825;BME280;35714;55.708;37.478;2023-12-14T00:13:33;99966.09;;;-9.49;55.28
49825;BME280;35714;55.708;37.478;2023-12-14T00:15:59;99957.59;;;-9.52;55.30
49825;BME280;35714;55.708;37.478;2023-12-14T00:18:25;99959.16;;;-9.64;55.85
49825;BME280;35714;55.708;37.478;2023-12-14T00:20:51;99947.94;;;-9.52;55.84
49825;BME280;35714;55.708;37.478;2023-12-14T00:23:18;99950.63;;;-9.53;55.85
49825;BME280;35714;55.708;37.478;2023-12-14T00:25:44;99956.25;;;-9.59;56.22
49825;BME280;35714;55.708;37.478;2023-12-14T00:28:10;99963.31;;;-9.46;55.82
49825;BME280;35714;55.708;37.478;2023-12-14T00:30:35;99950.81;;;-9.71;56.33
49825;BME280;35714;55.708;37.478;2023-12-14T00:33:01;99946.69;;;-9.75;57.17
49825;BME280;35714;55.708;37.478;2023-12-14T00:35:27;99954.09;;;-9.67;57.54
49825;BME280;35714;55.708;37.478;2023-12-14T00:37:53;99957.19;;;-9.61;57.58
49825;BME280;35714;55.708;37.478;2023-12-14T00:40:19;99950.53;;;-9.52;56.90
49825;BME280;35714;55.708;37.478;2023-12-14T00:42:44;99954.69;;;-9.48;56.59
49825;BME280;35714;55.708;37.478;2023-12-14T00:45:10;99949.34;;;-9.46;56.43
49825;BME280;35714;55.708;37.478;2023-12-14T00:47:36;99944.19;;;-9.48;56.59
49825;BME280;35714;55.708;37.478;2023-12-14T00:50:02;99956.91;;;-9.41;56.23
49825;BME280;35714;55.708;37.478;2023-12-14T00:52:29;99945.19;;;-9.21;55.94
49825;BME280;35714;55.708;37.478;2023-12-14T00:54:55;99959.63;;;-9.14;55.16
49825;BME280;35714;55.708;37.478;2023-12-14T00:57:21;99951.28;;;-9.35;55.99
49825;BME280;35714;55.708;37.478;2023-12-14T00:59:47;99943.22;;;-9.47;56.32
49825;BME280;35714;55.708;37.478;2023-12-14T01:02:13;99953.34;;;-9.26;55.85
49825;BME280;35714;55.708;37.478;2023-12-14T01:04:39;99955.22;;;-9.28;55.58
49825;BME280;35714;55.708;37.478;2023-12-14T01:07:04;99952.50;;;-9.27;55.54
49825;BME280;35714;55.708;37.478;2023-12-14T01:09:30;99958.03;;;-9.31;55.53
49825;BME280;35714;55.708;37.478;2023-12-14T01:11:56;99944.72;;;-9.28;55.85
49825;BME280;35714;55.708;37.478;2023-12-14T01:14:22;99946.81;;;-9.33;55.93
49825;BME280;35714;55.708;37.478;2023-12-14T01:16:48;99941.72;;;-9.36;56.07
49825;BME280;35714;55.708;37.478;2023-12-14T01:19:14;99936.84;;;-9.43;55.92
49825;BME280;35714;55.708;37.478;2023-12-14T01:21:39;99948.28;;;-9.29;55.84
49825;BME280;35714;55.708;37.478;2023-12-14T01:24:05;99944.34;;;-9.36;55.86
49825;BME280;35714;55.708;37.478;2023-12-14T01:26:31;99936.00;;;-9.29;55.66
49825;BME280;35714;55.708;37.478;2023-12-14T01:28:57;99934.94;;;-9.26;55.32
49825;BME280;35714;55.708;37.478;2023-12-14T01:31:25;99951.28;;;-9.21;55.22
49825;BME280;35714;55.708;37.478;2023-12-14T01:33:51;99959.34;;;-9.10;54.77
49825;BME280;35714;55.708;37.478;2023-12-14T01:36:24;99962.25;;;-9.14;54.69
49825;BME280;35714;55.708;37.478;2023-12-14T01:38:51;99957.00;;;-9.14;54.59
49825;BME280;35714;55.708;37.478;2023-12-14T01:41:17;99949.31;;;-9.32;55.55
49825;BME280;35714;55.708;37.478;2023-12-14T01:43:44;99947.19;;;-9.39;55.81
49825;BME280;35714;55.708;37.478;2023-12-14T01:46:10;99939.66;;;-9.31;55.68
49825;BME280;35714;55.708;37.478;2023-12-14T01:48:36;99946.97;;;-9.36;55.92
49825;BME280;35714;55.708;37.478;2023-12-14T01:51:02;99942.09;;;-9.43;56.41
49825;BME280;35714;55.708;37.478;2023-12-14T01:53:28;99947.34;;;-9.28;56.11
49825;BME280;35714;55.708;37.478;2023-12-14T01:55:54;99949.22;;;-9.16;55.05
49825;BME280;35714;55.708;37.478;2023-12-14T01:58:20;99935.91;;;-9.27;55.92
49825;BME280;35714;55.708;37.478;2023-12-14T02:03:26;99944.91;;;-9.31;56.72
49825;BME280;35714;55.708;37.478;2023-12-14T02:05:52;99951.84;;;-9.16;56.27
49825;BME280;35714;55.708;37.478;2023-12-14T02:08:18;99939.09;;;-9.22;56.31
49825;BME280;35714;55.708;37.478;2023-12-14T02:10:44;99940.56;;;-9.03;55.52
49825;BME280;35714;55.708;37.478;2023-12-14T02:13:10;99939.63;;;-9.17;55.29
49825;BME280;35714;55.708;37.478;2023-12-14T02:15:36;99935.91;;;-9.27;55.66
49825;BME280;35714;55.708;37.478;2023-12-14T02:18:02;99935.53;;;-9.35;56.15
49825;BME280;35714;55.708;37.478;2023-12-14T02:20:28;99938.53;;;-9.41;56.71
49825;BME280;35714;55.708;37.478;2023-12-14T02:22:54;99940.59;;;-9.32;56.50
49825;BME280;35714;55.708;37.478;2023-12-14T02:25:22;99929.72;;;-9.40;56.82
49825;BME280;35714;55.708;37.478;2023-12-14T02:27:48;99932.91;;;-9.21;56.08
49825;BME280;35714;55.708;37.478;2023-12-14T02:30:16;99936.81;;;-9.14;55.50
49825;BME280;35714;55.708;37.478;2023-12-14T02:32:41;99929.41;;;-9.21;55.87
49825;BME280;35714;55.708;37.478;2023-12-14T02:35:08;99937.00;;;-9.17;55.82
49825;BME280;35714;55.708;37.478;2023-12-14T02:37:34;99936.38;;;-9.35;56.09
49825;BME280;35714;55.708;37.478;2023-12-14T02:40:03;99937.31;;;-9.36;56.40
49825;BME280;35714;55.708;37.478;2023-12-14T02:42:30;99941.91;;;-9.25;56.01
49825;BME280;35714;55.708;37.478;2023-12-14T02:44:56;99935.72;;;-9.38;56.64
49825;BME280;35714;55.708;37.478;2023-12-14T02:47:22;99933.50;;;-9.45;56.86
49825;BME280;35714;55.708;37.478;2023-12-14T02:49:48;99935.06;;;-9.28;57.02
49825;BME280;35714;55.708;37.478;2023-12-14T02:52:14;99949.59;;;-9.22;56.60
49825;BME280;35714;55.708;37.478;2023-12-14T02:54:40;99949.03;;;-9.27;56.76
49825;BME280;35714;55.708;37.478;2023-12-14T02:57:06;99952.00;;;-9.04;56.02
49825;BME280;35714;55.708;37.478;2023-12-14T02:59:32;99952.03;;;-9.19;56.17
49825;BME280;35714;55.708;37.478;2023-12-14T03:01:58;99965.34;;;-9.22;56.23
49825;BME280;35714;55.708;37.478;2023-12-14T03:04:25;99953.16;;;-9.23;56.66
49825;BME280;35714;55.708;37.478;2023-12-14T03:06:51;99944.72;;;-9.28;56.64
49825;BME280;35714;55.708;37.478;2023-12-14T03:09:16;99940.41;;;-9.15;56.04
49825;BME280;35714;55.708;37.478;2023-12-14T03:11:44;99946.03;;;-9.21;56.09
49825;BME280;35714;55.708;37.478;2023-12-14T03:14:10;99949.84;;;-9.12;55.81
49825;BME280;35714;55.708;37.478;2023-12-14T03:16:36;99952.56;;;-9.14;56.16
49825;BME280;35714;55.708;37.478;2023-12-14T03:19:02;99952.41;;;-9.25;56.19
49825;BME280;35714;55.708;37.478;2023-12-14T03:21:29;99956.16;;;-9.15;56.06
49825;BME280;35714;55.708;37.478;2023-12-14T03:23:55;99947.91;;;-9.23;55.97
49825;BME280;35714;55.708;37.478;2023-12-14T03:26:21;99970.22;;;-9.16;56.63
49825;BME280;35714;55.708;37.478;2023-12-14T03:28:46;99950.31;;;-9.05;55.94
49825;BME280;35714;55.708;37.478;2023-12-14T03:31:12;99937.00;;;-9.17;55.88
49825;BME280;35714;55.708;37.478;2023-12-14T03:33:39;99946.69;;;-9.17;56.64
49825;BME280;35714;55.708;37.478;2023-12-14T03:36:05;99944.25;;;-9.35;56.71
49825;BME280;35714;55.708;37.478;2023-12-14T03:38:31;99957.56;;;-9.23;56.60
49825;BME280;35714;55.708;37.478;2023-12-14T03:40:57;99944.69;;;-9.14;56.17
49825;BME280;35714;55.708;37.478;2023-12-14T03:43:23;99944.34;;;-9.22;56.63
49825;BME280;35714;55.708;37.478;2023-12-14T03:45:49;99957.50;;;-8.95;55.66
49825;BME280;35714;55.708;37.478;2023-12-14T03:48:15;99944.78;;;-9.15;56.32
49825;BME280;35714;55.708;37.478;2023-12-14T03:50:41;99940.03;;;-9.23;56.57
49825;BME280;35714;55.708;37.478;2023-12-14T03:53:07;99956.03;;;-9.13;56.04
49825;BME280;35714;55.708;37.478;2023-12-14T03:55:33;99949.22;;;-9.16;56.06
49825;BME280;35714;55.708;37.478;2023-12-14T03:57:59;99949.59;;;-9.22;56.36
49825;BME280;35714;55.708;37.478;2023-12-14T04:00:24;99947.31;;;-9.14;56.27
49825;BME280;35714;55.708;37.478;2023-12-14T04:02:50;99950.53;;;-9.23;56.65
49825;BME280;35714;55.708;37.478;2023-12-14T04:05:17;99936.00;;;-9.14;56.12
49825;BME280;35714;55.708;37.478;2023-12-14T04:07:43;99934.75;;;-9.09;55.98
49825;BME280;35714;55.708;37.478;2023-12-14T04:10:10;99940.75;;;-9.07;56.13
49825;BME280;35714;55.708;37.478;2023-12-14T04:12:37;99941.88;;;-9.11;56.35
49825;BME280;35714;55.708;37.478;2023-12-14T04:15:04;99930.53;;;-9.11;56.15
49825;BME280;35714;55.708;37.478;2023-12-14T04:17:32;99928.75;;;-9.11;55.61
49825;BME280;35714;55.708;37.478;2023-12-14T04:19:59;99919.25;;;-8.99;55.82
49825;BME280;35714;55.708;37.478;2023-12-14T04:22:25;99921.59;;;-9.09;56.03
49825;BME280;35714;55.708;37.478;2023-12-14T04:24:51;99935.13;;;-9.00;56.42
49825;BME280;35714;55.708;37.478;2023-12-14T04:27:17;99936.25;;;-9.04;56.06
49825;BME280;35714;55.708;37.478;2023-12-14T04:29:43;99929.09;;;-9.02;55.41
49825;BME280;35714;55.708;37.478;2023-12-14T04:32:09;99929.75;;;-8.99;55.61
49825;BME280;35714;55.708;37.478;2023-12-14T04:34:35;99937.66;;;-8.99;55.53
49825;BME280;35714;55.708;37.478;2023-12-14T04:37:01;99928.94;;;-9.14;55.80
49825;BME280;35714;55.708;37.478;2023-12-14T04:39:27;99943.00;;;-9.00;55.58
49825;BME280;35714;55.708;37.478;2023-12-14T04:41:53;99922.75;;;-9.13;55.86
49825;BME280;35714;55.708;37.478;2023-12-14T04:44:20;99928.06;;;-9.00;55.37
49825;BME280;35714;55.708;37.478;2023-12-14T04:46:50;99931.75;;;-9.17;55.69
49825;BME280;35714;55.708;37.478;2023-12-14T04:49:16;99923.53;;;-9.25;56.37
49825;BME280;35714;55.708;37.478;2023-12-14T04:51:42;99934.19;;;-9.14;56.00
49825;BME280;35714;55.708;37.478;2023-12-14T04:54:08;99924.63;;;-9.29;56.43
49825;BME280;35714;55.708;37.478;2023-12-14T04:56:34;99942.66;;;-9.23;56.50
49825;BME280;35714;55.708;37.478;2023-12-14T04:59:00;99949.97;;;-9.28;56.74
49825;BME280;35714;55.708;37.478;2023-12-14T05:01:26;99934.94;;;-9.26;57.00
49825;BME280;35714;55.708;37.478;2023-12-14T05:03:54;99937.19;;;-9.20;56.64
49825;BME280;35714;55.708;37.478;2023-12-14T05:06:21;99925.72;;;-9.04;56.28
49825;BME280;35714;55.708;37.478;2023-12-14T05:08:47;99930.44;;;-9.10;56.33
49825;BME280;35714;55.708;37.478;2023-12-14T05:11:13;99938.31;;;-9.10;56.57
49825;BME280;35714;55.708;37.478;2023-12-14T05:13:40;99936.03;;;-9.01;56.18
49825;BME280;35714;55.708;37.478;2023-12-14T05:16:06;99942.00;;;-8.85;56.09
49825;BME280;35714;55.708;37.478;2023-12-14T05:18:32;99942.75;;;-8.83;54.99
49825;BME280;35714;55.708;37.478;2023-12-14T05:20:59;99938.00;;;-8.91;55.31
49825;BME280;35714;55.708;37.478;2023-12-14T05:23:25;99947.88;;;-8.94;55.83
49825;BME280;35714;55.708;37.478;2023-12-14T05:25:51;99952.94;;;-8.91;55.37
49825;BME280;35714;55.708;37.478;2023-12-14T05:28:17;99953.81;;;-8.78;55.22
49825;BME280;35714;55.708;37.478;2023-12-14T05:30:42;99957.75;;;-8.85;54.74
49825;BME280;35714;55.708;37.478;2023-12-14T05:33:08;99950.84;;;-8.86;54.54
49825;BME280;35714;55.708;37.478;2023-12-14T05:35:34;99952.19;;;-9.08;55.44
49825;BME280;35714;55.708;37.478;2023-12-14T05:38:00;99943.28;;;-9.05;55.51
49825;BME280;35714;55.708;37.478;2023-12-14T05:40:26;99953.13;;;-8.94;55.29
49825;BME280;35714;55.708;37.478;2023-12-14T05:42:51;99951.72;;;-8.73;54.34
49825;BME280;35714;55.708;37.478;2023-12-14T05:45:17;99947.06;;;-8.82;54.69
49825;BME280;35714;55.708;37.478;2023-12-14T05:47:46;99952.19;;;-9.08;55.46
49825;BME280;35714;55.708;37.478;2023-12-14T05:50:12;99942.91;;;-8.99;55.40
49825;BME280;35714;55.708;37.478;2023-12-14T05:52:38;99947.47;;;-9.02;55.60
49825;BME280;35714;55.708;37.478;2023-12-14T05:55:09;99932.09;;;-8.94;55.40
49825;BME280;35714;55.708;37.478;2023-12-14T05:57:38;99951.28;;;-8.79;55.03
49825;BME280;35714;55.708;37.478;2023-12-14T06:00:05;99958.38;;;-8.94;55.71
49825;BME280;35714;55.708;37.478;2023-12-14T06:02:33;99955.75;;;-8.94;55.12
49825;BME280;35714;55.708;37.478;2023-12-14T06:04:59;99949.16;;;-8.87;55.35
49825;BME280;35714;55.708;37.478;2023-12-14T06:07:25;99942.91;;;-8.72;55.19
49825;BME280;35714;55.708;37.478;2023-12-14T06:09:51;99941.59;;;-8.79;55.03
49825;BME280;35714;55.708;37.478;2023-12-14T06:12:17;99940.34;;;-8.86;55.46
49825;BME280;35714;55.708;37.478;2023-12-14T06:14:43;99947.47;;;-8.88;55.65
49825;BME280;35714;55.708;37.478;2023-12-14T06:17:10;99942.81;;;-8.97;55.93
49825;BME280;35714;55.708;37.478;2023-12-14T06:19:36;99944.09;;;-8.90;56.44
49825;BME280;35714;55.708;37.478;2023-12-14T06:22:02;99947.06;;;-8.82;56.28
49825;BME280;35714;55.708;37.478;2023-12-14T06:24:28;99938.78;;;-8.76;55.97
49825;BME280;35714;55.708;37.478;2023-12-14T06:26:54;99954.75;;;-8.79;56.12
49825;BME280;35714;55.708;37.478;2023-12-14T06:29:20;99962.09;;;-8.57;55.48
49825;BME280;35714;55.708;37.478;2023-12-14T06:31:46;99958.63;;;-8.57;55.25
49825;BME280;35714;55.708;37.478;2023-12-14T06:34:12;99954.94;;;-8.67;55.88
49825;BME280;35714;55.708;37.478;2023-12-14T06:36:42;99958.81;;;-8.60;55.41
49825;BME280;35714;55.708;37.478;2023-12-14T06:39:09;99953.22;;;-8.68;55.81
49825;BME280;35714;55.708;37.478;2023-12-14T06:41:35;99958.78;;;-8.46;54.94
49825;BME280;35714;55.708;37.478;2023-12-14T06:44:00;99953.97;;;-8.66;55.68
49825;BME280;35714;55.708;37.478;2023-12-14T06:46:26;99958.28;;;-8.65;56.06
49825;BME280;35714;55.708;37.478;2023-12-14T06:48:52;99941.50;;;-8.63;55.83
49825;BME280;35714;55.708;37.478;2023-12-14T06:51:19;99950.94;;;-8.60;55.59
49825;BME280;35714;55.708;37.478;2023-12-14T06:53:45;99962.31;;;-8.60;55.58
49825;BME280;35714;55.708;37.478;2023-12-14T06:56:13;99971.91;;;-8.46;55.05
49825;BME280;35714;55.708;37.478;2023-12-14T06:58:40;99967.00;;;-8.38;54.61
49825;BME280;35714;55.708;37.478;2023-12-14T07:01:08;99960.22;;;-8.42;54.94
49825;BME280;35714;55.708;37.478;2023-12-14T07:03:40;99964.03;;;-8.46;54.65
49825;BME280;35714;55.708;37.478;2023-12-14T07:06:06;99955.09;;;-8.43;54.83
49825;BME280;35714;55.708;37.478;2023-12-14T07:08:32;99952.56;;;-8.45;54.81
49825;BME280;35714;55.708;37.478;2023-12-14T07:10:58;99950.78;;;-8.44;54.67
49825;BME280;35714;55.708;37.478;2023-12-14T07:13:24;99959.38;;;-8.55;55.54
49825;BME280;35714;55.708;37.478;2023-12-14T07:15:49;99961.50;;;-8.47;55.18
49825;BME280;35714;55.708;37.478;2023-12-14T07:18:15;99961.25;;;-8.57;55.28
49825;BME280;35714;55.708;37.478;2023-12-14T07:20:41;99975.97;;;-8.67;56.16
49825;BME280;35714;55.708;37.478;2023-12-14T07:23:07;99986.53;;;-8.55;55.88
49825;BME280;35714;55.708;37.478;2023-12-14T07:25:32;99991.19;;;-8.32;54.96
49825;BME280;35714;55.708;37.478;2023-12-14T07:27:58;99992.72;;;-8.16;54.30
49825;BME280;35714;55.708;37.478;2023-12-14T07:30:24;99978.53;;;-8.53;55.07
49825;BME280;35714;55.708;37.478;2023-12-14T07:32:50;99981.91;;;-8.51;55.52
49825;BME280;35714;55.708;37.478;2023-12-14T07:35:16;99964.94;;;-8.60;55.48
49825;BME280;35714;55.708;37.478;2023-12-14T07:37:42;99982.88;;;-8.66;55.81
49825;BME280;35714;55.708;37.478;2023-12-14T07:40:08;99982.69;;;-8.63;56.10
49825;BME280;35714;55.708;37.478;2023-12-14T07:42:34;99975.56;;;-8.61;56.13
49825;BME280;35714;55.708;37.478;2023-12-14T07:45:00;99979.38;;;-8.53;55.85
49825;BME280;35714;55.708;37.478;2023-12-14T07:47:26;99987.06;;;-8.49;55.93
49825;BME280;35714;55.708;37.478;2023-12-14T07:49:52;99991.19;;;-8.32;55.17
49825;BME280;35714;55.708;37.478;2023-12-14T07:52:17;99998.34;;;-8.35;54.97
49825;BME280;35714;55.708;37.478;2023-12-14T07:54:44;99995.38;;;-8.30;55.20
49825;BME280;35714;55.708;37.478;2023-12-14T07:57:09;99990.81;;;-8.26;55.16
49825;BME280;35714;55.708;37.478;2023-12-14T07:59:35;100014.22;;;-8.36;55.61
49825;BME280;35714;55.708;37.478;2023-12-14T08:02:01;99998.97;;;-8.44;55.25
49825;BME280;35714;55.708;37.478;2023-12-14T08:04:27;99997.88;;;-8.54;56.22
49825;BME280;35714;55.708;37.478;2023-12-14T08:06:52;99994.22;;;-8.51;56.51
49825;BME280;35714;55.708;37.478;2023-12-14T08:09:18;99997.50;;;-8.35;55.73
49825;BME280;35714;55.708;37.478;2023-12-14T08:11:44;99999.69;;;-8.42;55.78
49825;BME280;35714;55.708;37.478;2023-12-14T08:14:10;100007.31;;;-8.24;55.68
49825;BME280;35714;55.708;37.478;2023-12-14T08:16:35;100008.22;;;-8.38;55.73
49825;BME280;35714;55.708;37.478;2023-12-14T08:19:01;100004.69;;;-8.24;55.62
49825;BME280;35714;55.708;37.478;2023-12-14T08:21:27;99988.91;;;-8.24;55.27
49825;BME280;35714;55.708;37.478;2023-12-14T08:23:53;99981.00;;;-8.24;55.93
49825;BME280;35714;55.708;37.478;2023-12-14T08:26:18;99991.88;;;-8.16;56.03
49825;BME280;35714;55.708;37.478;2023-12-14T08:28:44;99983.56;;;-8.10;55.04
49825;BME280;35714;55.708;37.478;2023-12-14T08:31:10;100001.38;;;-8.01;54.76
49825;BME280;35714;55.708;37.478;2023-12-14T08:33:37;99994.41;;;-8.02;54.34
49825;BME280;35714;55.708;37.478;2023-12-14T08:36:03;99996.13;;;-8.01;54.30
49825;BME280;35714;55.708;37.478;2023-12-14T08:38:31;99997.81;;;-8.00;54.27
49825;BME280;35714;55.708;37.478;2023-12-14T08:40:56;100011.69;;;-7.98;54.59
49825;BME280;35714;55.708;37.478;2023-12-14T08:43:22;100006.88;;;-7.91;54.10
49825;BME280;35714;55.708;37.478;2023-12-14T08:45:48;99994.41;;;-8.02;54.33
49825;BME280;35714;55.708;37.478;2023-12-14T08:48:14;99985.50;;;-7.86;53.85
49825;BME280;35714;55.708;37.478;2023-12-14T08:50:40;100002.31;;;-8.02;54.59
49825;BME280;35714;55.708;37.478;2023-12-14T08:53:06;99994.88;;;-7.82;54.36
49825;BME280;35714;55.708;37.478;2023-12-14T08:55:32;99982.03;;;-7.74;53.35
49825;BME280;35714;55.708;37.478;2023-12-14T08:57:58;99997.59;;;-7.96;54.15
49825;BME280;35714;55.708;37.478;2023-12-14T09:00:24;99979.06;;;-8.08;54.98
49825;BME280;35714;55.708;37.478;2023-12-14T09:02:50;99980.13;;;-7.98;54.70
49825;BME280;35714;55.708;37.478;2023-12-14T09:05:15;99975.16;;;-8.15;55.28
49825;BME280;35714;55.708;37.478;2023-12-14T09:07:42;99960.66;;;-8.08;55.25
49825;BME280;35714;55.708;37.478;2023-12-14T09:10:09;99957.06;;;-8.07;55.44
49825;BME280;35714;55.708;37.478;2023-12-14T09:12:35;99956.66;;;-8.01;55.78
49825;BME280;35714;55.708;37.478;2023-12-14T09:15:01;99947.94;;;-7.88;55.89
49825;BME280;35714;55.708;37.478;2023-12-14T09:17:30;99959.19;;;-7.86;55.84
49825;BME280;35714;55.708;37.478;2023-12-14T09:20:01;99956.13;;;-7.67;55.02
49825;BME280;35714;55.708;37.478;2023-12-14T09:22:29;99958.03;;;-7.56;54.50
49825;BME280;35714;55.708;37.478;2023-12-14T09:24:55;99960.25;;;-7.63;54.44
49825;BME280;35714;55.708;37.478;2023-12-14T09:27:21;99971.50;;;-7.61;53.68
49825;BME280;35714;55.708;37.478;2023-12-14T09:29:46;99977.75;;;-7.62;53.39
49825;BME280;35714;55.708;37.478;2023-12-14T09:32:13;99989.41;;;-7.79;54.28
49825;BME280;35714;55.708;37.478;2023-12-14T09:34:38;99994.16;;;-7.84;54.05
49825;BME280;35714;55.708;37.478;2023-12-14T09:37:04;99992.16;;;-7.68;53.88
49825;BME280;35714;55.708;37.478;2023-12-14T09:39:30;99993.66;;;-7.76;54.24
49825;BME280;35714;55.708;37.478;2023-12-14T09:42:03;99989.13;;;-7.74;54.06
49825;BME280;35714;55.708;37.478;2023-12-14T09:44:30;99994.28;;;-7.60;53.77
49825;BME280;35714;55.708;37.478;2023-12-14T09:47:00;100000.38;;;-7.47;52.87
49825;BME280;35714;55.708;37.478;2023-12-14T09:49:29;99998.81;;;-7.36;51.88
49825;BME280;35714;55.708;37.478;2023-12-14T09:51:56;100001.66;;;-7.52;52.27
49825;BME280;35714;55.708;37.478;2023-12-14T09:54:23;99992.25;;;-7.69;53.25
49825;BME280;35714;55.708;37.478;2023-12-14T09:56:49;99988.59;;;-7.67;52.52
49825;BME280;35714;55.708;37.478;2023-12-14T09:59:15;99992.47;;;-7.85;53.82
49825;BME280;35714;55.708;37.478;2023-12-14T10:01:42;99997.22;;;-7.65;53.29
49825;BME280;35714;55.708;37.478;2023-12-14T10:04:12;99986.69;;;-7.52;52.61
49825;BME280;35714;55.708;37.478;2023-12-14T10:06:40;99992.81;;;-7.51;52.61
49825;BME280;35714;55.708;37.478;2023-12-14T10:09:06;99998.50;;;-7.45;52.51
49825;BME280;35714;55.708;37.478;2023-12-14T10:11:39;99988.16;;;-7.35;52.06
49825;BME280;35714;55.708;37.478;2023-12-14T10:14:25;99976.34;;;-7.42;52.42
49825;BME280;35714;55.708;37.478;2023-12-14T10:16:51;99973.50;;;-7.39;52.25
49825;BME280;35714;55.708;37.478;2023-12-14T10:19:17;99978.56;;;-7.36;52.38
49825;BME280;35714;55.708;37.478;2023-12-14T10:21:43;99966.88;;;-7.32;52.53
49825;BME280;35714;55.708;37.478;2023-12-14T10:24:09;99979.13;;;-7.31;52.80
49825;BME280;35714;55.708;37.478;2023-12-14T10:26:34;99978.47;;;-7.21;52.45
49825;BME280;35714;55.708;37.478;2023-12-14T10:29:01;99975.28;;;-7.14;52.07
49825;BME280;35714;55.708;37.478;2023-12-14T10:31:32;99981.84;;;-7.19;52.53
49825;BME280;35714;55.708;37.478;2023-12-14T10:34:05;99969.81;;;-7.23;52.89
49825;BME280;35714;55.708;37.478;2023-12-14T10:36:30;99970.22;;;-7.17;53.39
49825;BME280;35714;55.708;37.478;2023-12-14T10:38:56;99967.91;;;-7.09;53.31
49825;BME280;35714;55.708;37.478;2023-12-14T10:41:23;99954.41;;;-7.04;53.24
49825;BME280;35714;55.708;37.478;2023-12-14T10:43:48;99954.31;;;-7.02;53.10
49825;BME280;35714;55.708;37.478;2023-12-14T10:46:15;99954.91;;;-6.99;52.86
49825;BME280;35714;55.708;37.478;2023-12-14T10:48:42;99948.47;;;-6.95;52.86
49825;BME280;35714;55.708;37.478;2023-12-14T10:51:09;99944.66;;;-6.91;51.92
49825;BME280;35714;55.708;37.478;2023-12-14T10:53:36;99947.22;;;-7.02;52.52
49825;BME280;35714;55.708;37.478;2023-12-14T10:56:03;99933.16;;;-6.90;51.88
49825;BME280;35714;55.708;37.478;2023-12-14T11:01:33;99929.72;;;-7.03;51.75
49825;BME280;35714;55.708;37.478;2023-12-14T11:04:00;99931.63;;;-7.05;51.92
49825;BME280;35714;55.708;37.478;2023-12-14T11:06:30;99919.38;;;-7.06;51.82
49825;BME280;35714;55.708;37.478;2023-12-14T11:08:57;99916.47;;;-7.14;52.47
49825;BME280;35714;55.708;37.478;2023-12-14T11:11:27;99917.50;;;-7.04;52.37
49825;BME280;35714;55.708;37.478;2023-12-14T11:13:53;99916.97;;;-7.09;52.78
49825;BME280;35714;55.708;37.478;2023-12-14T11:16:27;99918.22;;;-7.02;52.53
49825;BME280;35714;55.708;37.478;2023-12-14T11:21:39;99919.50;;;-6.95;51.55
49825;BME280;35714;55.708;37.478;2023-12-14T11:24:05;99934.78;;;-7.00;51.07
49825;BME280;35714;55.708;37.478;2023-12-14T11:26:31;99922.78;;;-7.17;51.25
49825;BME280;35714;55.708;37.478;2023-12-14T11:28:56;99930.41;;;-7.25;51.95
49825;BME280;35714;55.708;37.478;2023-12-14T11:31:22;99924.81;;;-7.20;51.72
49825;BME280;35714;55.708;37.478;2023-12-14T11:33:48;99926.22;;;-7.28;51.72
49825;BME280;35714;55.708;37.478;2023-12-14T11:36:14;99913.97;;;-7.29;51.75
49825;BME280;35714;55.708;37.478;2023-12-14T11:38:39;99919.69;;;-7.35;51.96
49825;BME280;35714;55.708;37.478;2023-12-14T11:41:05;99909.47;;;-7.39;52.36
49825;BME280;35714;55.708;37.478;2023-12-14T11:43:38;99921.25;;;-7.32;52.56
49825;BME280;35714;55.708;37.478;2023-12-14T11:46:03;99922.38;;;-7.23;52.46
49825;BME280;35714;55.708;37.478;2023-12-14T11:48:29;99919.88;;;-7.25;51.96
49825;BME280;35714;55.708;37.478;2023-12-14T11:50:55;99923.78;;;-7.31;52.50
49825;BME280;35714;55.708;37.478;2023-12-14T11:53:21;99932.06;;;-7.11;51.50
49825;BME280;35714;55.708;37.478;2023-12-14T11:55:46;99934.84;;;-7.26;51.83
49825;BME280;35714;55.708;37.478;2023-12-14T11:58:12;99927.88;;;-7.27;52.00
49825;BME280;35714;55.708;37.478;2023-12-14T12:00:42;99937.41;;;-7.37;52.33
49825;BME280;35714;55.708;37.478;2023-12-14T12:05:45;99938.19;;;-7.23;52.29
49825;BME280;35714;55.708;37.478;2023-12-14T12:08:11;99952.78;;;-7.31;52.10
49825;BME280;35714;55.708;37.478;2023-12-14T12:10:38;99943.19;;;-7.45;52.37
49825;BME280;35714;55.708;37.478;2023-12-14T12:13:04;99940.16;;;-7.51;52.63
49825;BME280;35714;55.708;37.478;2023-12-14T12:15:31;99939.06;;;-7.49;52.86
49825;BME280;35714;55.708;37.478;2023-12-14T12:17:57;99948.78;;;-7.49;52.78
49825;BME280;35714;55.708;37.478;2023-12-14T12:20:22;99957.19;;;-7.44;53.05
49825;BME280;35714;55.708;37.478;2023-12-14T12:22:48;99951.81;;;-7.30;52.58
49825;BME280;35714;55.708;37.478;2023-12-14T12:25:14;99935.41;;;-7.46;52.91
49825;BME280;35714;55.708;37.478;2023-12-14T12:27:40;99929.69;;;-7.40;53.10
49825;BME280;35714;55.708;37.478;2023-12-14T12:30:05;99927.19;;;-7.41;52.92
49825;BME280;35714;55.708;37.478;2023-12-14T12:32:31;99926.63;;;-7.34;52.92
49825;BME280;35714;55.708;37.478;2023-12-14T12:34:57;99928.19;;;-7.31;52.66
49825;BME280;35714;55.708;37.478;2023-12-14T12:37:22;99935.28;;;-7.32;52.50
49825;BME280;35714;55.708;37.478;2023-12-14T12:39:48;99932.09;;;-7.24;52.59
49825;BME280;35714;55.708;37.478;2023-12-14T12:42:13;99934.88;;;-7.38;52.70
49825;BME280;35714;55.708;37.478;2023-12-14T12:44:39;99946.97;;;-7.36;52.90
49825;BME280;35714;55.708;37.478;2023-12-14T12:47:04;99943.16;;;-7.32;52.60
49825;BME280;35714;55.708;37.478;2023-12-14T12:49:30;99934.84;;;-7.26;52.65
49825;BME280;35714;55.708;37.478;2023-12-14T12:51:56;99939.16;;;-7.24;52.11
49825;BME280;35714;55.708;37.478;2023-12-14T12:54:21;99951.72;;;-7.41;52.16
49825;BME280;35714;55.708;37.478;2023-12-14T12:56:47;99952.03;;;-7.46;52.54